Time;durP1;ratioP1;P1;durP2;ratioP2;P2;SDS_P1;SDS_P2;PMS_P1;PMS_P2;Temp;Humidity;BMP_temperature;BMP_pressure;BME280_temperature;BME280_humidity;BME280_pressure;Samples;Min_cycle;Max_cycle;Signal;HPM_P1;HPM_P2
2020/12/15 00:01:13;;;;;;;30.10;17.40;;;7.10;1.00;;;;;;5071822;28;20180;-55
2020/12/15 00:03:38;;;;;;;24.97;16.87;;;7.10;1.00;;;;;;5055821;28;20237;-56
2020/12/15 00:06:04;;;;;;;24.50;17.30;;;7.20;1.00;;;;;;5055944;28;20318;-54
2020/12/15 00:08:29;;;;;;;27.23;18.60;;;7.30;1.00;;;;;;5056022;28;20180;-66
2020/12/15 00:10:55;;;;;;;26.50;18.00;;;7.20;1.00;;;;;;5053187;28;20262;-66
2020/12/15 00:13:21;;;;;;;25.70;17.77;;;7.20;1.00;;;;;;5052704;28;20227;-55
2020/12/15 00:15:46;;;;;;;27.60;17.33;;;7.20;1.00;;;;;;5055425;28;20180;-67
2020/12/15 00:18:12;;;;;;;26.20;17.33;;;7.30;1.00;;;;;;5055535;28;20274;-55
2020/12/15 00:20:41;;;;;;;23.43;16.53;;;7.20;1.00;;;;;;5054574;28;20506;-67
2020/12/15 00:23:08;;;;;;;22.73;16.40;;;7.20;1.00;;;;;;5056125;28;20188;-55
2020/12/15 00:25:34;;;;;;;23.20;17.43;;;7.20;1.00;;;;;;5071340;28;20951;-67
2020/12/15 00:27:59;;;;;;;23.80;16.70;;;7.40;1.00;;;;;;5053557;28;20492;-55
2020/12/15 00:30:25;;;;;;;21.37;16.07;;;7.20;1.00;;;;;;5054891;28;20184;-67
2020/12/15 00:32:51;;;;;;;24.53;17.30;;;7.20;1.00;;;;;;5054020;28;21039;-65
2020/12/15 00:35:17;;;;;;;22.47;15.60;;;7.20;1.00;;;;;;5054415;28;20499;-65
2020/12/15 00:37:42;;;;;;;23.90;16.07;;;7.20;1.00;;;;;;5054992;28;20474;-68
2020/12/15 00:40:08;;;;;;;26.30;17.90;;;7.20;1.00;;;;;;5054339;28;20176;-57
2020/12/15 00:42:34;;;;;;;23.40;15.53;;;7.20;1.00;;;;;;5041127;28;20292;-56
2020/12/15 00:44:59;;;;;;;22.13;16.40;;;7.20;1.00;;;;;;5055248;28;20212;-57
2020/12/15 00:47:25;;;;;;;22.73;15.43;;;7.30;1.00;;;;;;5054149;28;20304;-56
2020/12/15 00:49:51;;;;;;;23.13;16.63;;;7.30;1.00;;;;;;5055212;28;20187;-56
2020/12/15 00:52:16;;;;;;;21.70;15.90;;;7.30;1.00;;;;;;5054168;28;20188;-55
2020/12/15 00:54:42;;;;;;;22.03;15.40;;;7.30;1.00;;;;;;5053432;28;20180;-57
2020/12/15 00:57:08;;;;;;;21.80;16.07;;;7.30;1.00;;;;;;5055054;28;20203;-57
2020/12/15 00:59:33;;;;;;;22.90;15.57;;;7.30;1.00;;;;;;5055063;28;20187;-55
2020/12/15 01:02:00;;;;;;;23.47;16.43;;;7.30;1.00;;;;;;5054741;28;20179;-66
2020/12/15 01:04:26;;;;;;;25.00;15.30;;;7.30;1.00;;;;;;5054971;28;20183;-66
2020/12/15 01:06:51;;;;;;;22.00;15.27;;;7.30;1.00;;;;;;5054099;28;20422;-67
2020/12/15 01:09:17;;;;;;;20.07;14.83;;;7.30;1.00;;;;;;5053693;28;20314;-65
2020/12/15 01:11:43;;;;;;;20.77;15.90;;;7.30;1.00;;;;;;5053884;28;20199;-55
2020/12/15 01:14:09;;;;;;;21.90;14.93;;;7.30;1.00;;;;;;5054420;28;20439;-55
2020/12/15 01:16:34;;;;;;;19.63;14.17;;;7.20;1.00;;;;;;5053964;28;20530;-55
2020/12/15 01:19:00;;;;;;;19.40;13.80;;;7.30;1.00;;;;;;5053832;28;20208;-55
2020/12/15 01:21:29;;;;;;;18.73;13.40;;;7.30;1.00;;;;;;5054725;28;20266;-66
2020/12/15 01:23:56;;;;;;;19.53;14.50;;;7.30;1.00;;;;;;5054632;28;20254;-55
2020/12/15 01:26:22;;;;;;;20.10;15.70;;;7.20;1.00;;;;;;5051748;28;20474;-55
2020/12/15 01:28:48;;;;;;;19.47;14.93;;;7.20;1.00;;;;;;5052376;28;20458;-66
2020/12/15 01:31:14;;;;;;;21.47;15.50;;;7.20;1.00;;;;;;5054020;28;20749;-66
2020/12/15 01:33:39;;;;;;;21.00;15.47;;;7.20;1.00;;;;;;5069295;28;20469;-66
2020/12/15 01:36:05;;;;;;;19.63;15.40;;;7.20;1.00;;;;;;5052754;28;20180;-58
2020/12/15 01:38:31;;;;;;;21.70;16.17;;;7.20;1.00;;;;;;5053436;28;20214;-66
2020/12/15 01:40:56;;;;;;;18.10;13.90;;;7.10;1.00;;;;;;5053987;28;20616;-65
2020/12/15 01:43:22;;;;;;;16.77;13.13;;;7.10;1.00;;;;;;5054055;28;20514;-57
2020/12/15 01:45:48;;;;;;;19.63;14.17;;;7.00;1.00;;;;;;5050103;28;20184;-65
2020/12/15 01:48:14;;;;;;;19.90;14.77;;;7.10;1.00;;;;;;5053176;28;20181;-66
2020/12/15 01:50:40;;;;;;;22.30;14.63;;;7.10;1.00;;;;;;5069779;28;20176;-66
2020/12/15 01:53:09;;;;;;;19.13;13.73;;;7.10;1.00;;;;;;5052367;28;20457;-66
2020/12/15 01:55:37;;;;;;;17.63;13.70;;;7.10;1.00;;;;;;5054077;28;20418;-55
2020/12/15 01:58:03;;;;;;;24.50;16.10;;;7.10;1.00;;;;;;5053642;28;20470;-66
2020/12/15 02:00:29;;;;;;;19.57;14.67;;;7.10;1.00;;;;;;5053871;28;20517;-56
2020/12/15 02:02:55;;;;;;;20.03;15.47;;;7.00;1.00;;;;;;5053969;28;20418;-56
2020/12/15 02:05:21;;;;;;;22.93;17.50;;;7.00;1.00;;;;;;5069661;28;20429;-66
2020/12/15 02:07:47;;;;;;;20.70;15.63;;;7.00;1.00;;;;;;5068354;28;20521;-65
2020/12/15 02:10:13;;;;;;;22.23;16.23;;;7.00;1.00;;;;;;5052455;28;20565;-66
2020/12/15 02:12:40;;;;;;;22.10;16.10;;;7.10;1.00;;;;;;5052821;28;20434;-65
2020/12/15 02:15:06;;;;;;;24.20;17.00;;;7.10;1.00;;;;;;5052449;28;20439;-65
2020/12/15 02:17:32;;;;;;;24.50;16.93;;;7.10;1.00;;;;;;5053821;28;20660;-66
2020/12/15 02:20:15;;;;;;;20.57;16.50;;;7.10;1.00;;;;;;5053141;28;20529;-66
2020/12/15 02:22:41;;;;;;;24.43;16.73;;;7.10;1.00;;;;;;5051661;28;20454;-56
2020/12/15 02:25:07;;;;;;;24.80;18.53;;;7.10;1.00;;;;;;5052299;28;20788;-66
2020/12/15 02:27:33;;;;;;;26.90;19.00;;;7.10;1.00;;;;;;5053382;28;20625;-66
2020/12/15 02:29:58;;;;;;;24.23;18.30;;;7.20;1.00;;;;;;5053525;28;20521;-56
2020/12/15 02:32:24;;;;;;;27.33;18.50;;;7.10;1.00;;;;;;5053703;28;20625;-56
2020/12/15 02:34:55;;;;;;;23.80;17.70;;;7.10;1.00;;;;;;5053635;28;20191;-56
2020/12/15 02:37:21;;;;;;;25.67;18.30;;;7.00;1.00;;;;;;5051714;28;20200;-66
2020/12/15 02:39:46;;;;;;;22.97;15.80;;;7.00;1.00;;;;;;5048501;28;20443;-66
2020/12/15 02:42:12;;;;;;;26.80;18.90;;;7.00;1.00;;;;;;5053180;28;20191;-56
2020/12/15 02:44:37;;;;;;;22.23;17.03;;;6.90;1.00;;;;;;5050000;28;20184;-56
2020/12/15 02:47:03;;;;;;;29.47;20.30;;;6.90;1.00;;;;;;5034850;28;20236;-56
2020/12/15 02:49:29;;;;;;;24.50;19.17;;;6.90;1.00;;;;;;5050597;28;20183;-56
2020/12/15 02:51:54;;;;;;;25.07;17.63;;;6.90;1.00;;;;;;5068144;28;20199;-55
2020/12/15 02:54:20;;;;;;;25.67;18.53;;;6.80;1.00;;;;;;5053280;28;20215;-65
2020/12/15 02:56:46;;;;;;;24.30;18.30;;;6.80;1.00;;;;;;5050940;28;20265;-65
2020/12/15 02:59:11;;;;;;;24.17;17.67;;;6.90;1.00;;;;;;5053207;28;20187;-66
2020/12/15 03:01:39;;;;;;;28.20;18.90;;;6.80;1.00;;;;;;5052754;28;20180;-66
2020/12/15 03:04:05;;;;;;;23.77;18.30;;;6.80;1.00;;;;;;5054804;28;20458;-66
2020/12/15 03:06:30;;;;;;;25.37;17.30;;;6.70;1.00;;;;;;5056942;28;20464;-66
2020/12/15 03:08:56;;;;;;;23.97;16.40;;;6.80;1.00;;;;;;5057269;28;20180;-67
2020/12/15 03:11:22;;;;;;;25.00;16.70;;;6.80;1.00;;;;;;5057136;28;20554;-57
2020/12/15 03:13:48;;;;;;;24.90;18.10;;;6.70;1.00;;;;;;5057140;28;20172;-55
2020/12/15 03:16:14;;;;;;;25.43;17.60;;;6.70;1.00;;;;;;5053464;28;20449;-67
2020/12/15 03:18:40;;;;;;;24.67;18.40;;;6.70;1.00;;;;;;5055892;28;20459;-66
2020/12/15 03:21:07;;;;;;;24.50;18.37;;;6.80;1.00;;;;;;5053654;28;20314;-55
2020/12/15 03:23:33;;;;;;;23.97;17.53;;;6.80;1.00;;;;;;5056508;28;20183;-55
2020/12/15 03:25:59;;;;;;;23.83;18.03;;;6.80;1.00;;;;;;5071782;28;20434;-55
2020/12/15 03:28:25;;;;;;;26.43;18.60;;;6.80;1.00;;;;;;5056187;28;20430;-66
2020/12/15 03:30:51;;;;;;;26.70;18.20;;;6.80;1.00;;;;;;5056069;28;20188;-55
2020/12/15 03:33:19;;;;;;;25.10;18.50;;;6.90;1.00;;;;;;5051909;28;20246;-55
2020/12/15 03:35:45;;;;;;;25.93;18.07;;;6.90;1.00;;;;;;5055679;28;20263;-66
2020/12/15 03:38:11;;;;;;;24.63;17.93;;;6.90;1.00;;;;;;5054939;28;20546;-66
2020/12/15 03:40:37;;;;;;;26.07;17.93;;;6.80;1.00;;;;;;5054732;28;20226;-66
2020/12/15 03:43:03;;;;;;;28.17;19.47;;;6.90;1.00;;;;;;5052087;28;20839;-55
2020/12/15 03:45:30;;;;;;;26.73;18.40;;;6.80;1.00;;;;;;5054991;28;20627;-55
2020/12/15 03:47:56;;;;;;;25.00;19.17;;;6.80;1.00;;;;;;5054117;28;20565;-55
2020/12/15 03:50:22;;;;;;;25.53;18.20;;;6.70;1.00;;;;;;5056337;28;20476;-55
2020/12/15 03:52:48;;;;;;;28.43;19.40;;;6.60;1.00;;;;;;5056227;28;20763;-66
2020/12/15 03:55:14;;;;;;;29.83;18.80;;;6.60;1.00;;;;;;5055901;28;20618;-55
2020/12/15 03:57:39;;;;;;;27.50;19.20;;;6.60;1.00;;;;;;5054907;28;20234;-55
2020/12/15 04:00:08;;;;;;;25.77;18.13;;;6.60;1.00;;;;;;5054439;28;20172;-66
2020/12/15 04:02:33;;;;;;;27.20;20.00;;;6.60;1.00;;;;;;5055732;28;20628;-56
2020/12/15 04:04:59;;;;;;;25.80;18.20;;;6.50;1.00;;;;;;5056310;28;20422;-66
2020/12/15 04:07:24;;;;;;;27.97;19.63;;;6.60;1.00;;;;;;5055996;28;20179;-56
2020/12/15 04:09:50;;;;;;;28.63;19.80;;;6.60;1.00;;;;;;5052069;28;20184;-54
2020/12/15 04:12:16;;;;;;;29.60;20.97;;;6.60;1.00;;;;;;5055439;28;20572;-68
2020/12/15 04:14:42;;;;;;;31.20;20.50;;;6.60;1.00;;;;;;5069681;28;20199;-55
2020/12/15 04:17:11;;;;;;;29.30;19.23;;;6.60;1.00;;;;;;5055402;28;20203;-54
2020/12/15 04:19:37;;;;;;;29.03;20.10;;;6.60;1.00;;;;;;5054958;28;20441;-54
2020/12/15 04:22:03;;;;;;;26.20;19.60;;;6.60;1.00;;;;;;5055465;28;20818;-55
2020/12/15 04:24:29;;;;;;;30.30;21.10;;;6.60;1.00;;;;;;5053770;28;20531;-54
2020/12/15 04:26:55;;;;;;;30.80;19.97;;;6.50;1.00;;;;;;5055663;28;20418;-66
2020/12/15 04:29:20;;;;;;;26.80;20.30;;;6.50;1.00;;;;;;5053965;28;20495;-55
2020/12/15 04:31:46;;;;;;;29.10;20.10;;;6.60;1.00;;;;;;5054465;28;20317;-55
2020/12/15 04:34:12;;;;;;;34.50;21.40;;;6.60;1.00;;;;;;5053032;28;20195;-55
2020/12/15 04:36:37;;;;;;;30.87;20.60;;;6.60;1.00;;;;;;5054688;28;20184;-55
2020/12/15 04:39:04;;;;;;;30.20;19.77;;;6.60;1.00;;;;;;5055176;28;20207;-55
2020/12/15 04:41:30;;;;;;;29.33;19.13;;;6.60;1.00;;;;;;5054468;28;20172;-55
2020/12/15 04:43:57;;;;;;;30.60;21.37;;;6.60;1.00;;;;;;5055020;28;20493;-67
2020/12/15 04:46:26;;;;;;;29.30;19.23;;;6.70;1.00;;;;;;5045738;28;20502;-67
2020/12/15 04:49:04;;;;;;;30.60;20.10;;;6.60;1.00;;;;;;5047191;28;20454;-56
2020/12/15 04:51:43;;;;;;;29.43;21.73;;;6.60;1.00;;;;;;5055201;28;20573;-55
2020/12/15 04:54:15;;;;;;;31.60;19.63;;;6.60;1.00;;;;;;5054449;28;20937;-67
2020/12/15 04:56:44;;;;;;;26.00;19.50;;;6.60;1.00;;;;;;5038801;28;21164;-66
2020/12/15 04:59:12;;;;;;;32.47;20.97;;;6.60;1.00;;;;;;5053901;28;20453;-55
2020/12/15 05:01:39;;;;;;;29.40;20.63;;;6.60;1.00;;;;;;5053601;28;20756;-67
2020/12/15 05:04:07;;;;;;;30.50;19.80;;;6.60;1.00;;;;;;5054755;28;20483;-65
2020/12/15 05:06:37;;;;;;;29.13;20.63;;;6.60;1.00;;;;;;5054289;28;20433;-65
2020/12/15 05:09:03;;;;;;;27.93;20.60;;;6.60;1.00;;;;;;5054649;28;20418;-56
2020/12/15 05:11:28;;;;;;;28.50;20.23;;;6.60;1.00;;;;;;5054297;28;20899;-59
2020/12/15 05:13:55;;;;;;;26.80;18.90;;;6.60;1.00;;;;;;5054539;28;20617;-63
2020/12/15 05:16:20;;;;;;;27.90;19.47;;;6.60;1.00;;;;;;5054276;28;20176;-56
2020/12/15 05:18:46;;;;;;;29.67;19.50;;;6.80;1.00;;;;;;5054503;28;20524;-63
2020/12/15 05:21:16;;;;;;;32.60;20.70;;;6.70;1.00;;;;;;5054598;28;20176;-65
2020/12/15 05:23:46;;;;;;;30.70;20.30;;;6.80;1.00;;;;;;5054606;28;20172;-63
2020/12/15 05:26:20;;;;;;;29.50;18.53;;;6.80;1.00;;;;;;5069422;28;20433;-64
2020/12/15 05:28:46;;;;;;;29.20;18.80;;;6.80;1.00;;;;;;5053882;28;20426;-62
2020/12/15 05:31:14;;;;;;;32.10;21.63;;;6.80;1.00;;;;;;5054278;28;20430;-56
2020/12/15 05:33:40;;;;;;;24.93;17.50;;;6.60;1.00;;;;;;5053468;28;20175;-63
2020/12/15 05:36:17;;;;;;;28.50;19.03;;;6.60;1.00;;;;;;5054092;28;20435;-56
2020/12/15 05:38:43;;;;;;;29.80;18.60;;;6.60;1.00;;;;;;5054207;28;20438;-55
2020/12/15 05:41:13;;;;;;;27.50;19.40;;;6.60;1.00;;;;;;5070308;28;20437;-55
2020/12/15 05:43:39;;;;;;;28.77;19.67;;;6.50;1.00;;;;;;5053731;28;20186;-64
2020/12/15 05:46:06;;;;;;;31.30;20.23;;;6.50;1.00;;;;;;5069693;28;20470;-65
2020/12/15 05:48:32;;;;;;;33.83;19.97;;;6.50;1.00;;;;;;5053768;28;20493;-56
2020/12/15 05:50:58;;;;;;;29.40;19.03;;;6.50;1.00;;;;;;5054114;28;20437;-56
2020/12/15 05:53:24;;;;;;;27.57;18.20;;;6.50;1.00;;;;;;5053701;28;20441;-64
2020/12/15 05:55:50;;;;;;;30.00;19.47;;;6.50;1.00;;;;;;5053972;28;20434;-56
2020/12/15 05:58:16;;;;;;;28.77;19.17;;;6.50;1.00;;;;;;5053716;28;20235;-56
2020/12/15 06:00:42;;;;;;;28.10;19.57;;;6.50;1.00;;;;;;5054070;28;20168;-55
2020/12/15 06:03:08;;;;;;;30.70;18.43;;;6.50;1.00;;;;;;5053382;28;20814;-55
2020/12/15 06:05:36;;;;;;;24.87;18.67;;;6.50;1.00;;;;;;5053480;28;20203;-55
2020/12/15 06:08:04;;;;;;;27.97;18.73;;;6.50;1.00;;;;;;5053982;28;20435;-64
2020/12/15 06:10:31;;;;;;;25.43;18.60;;;6.50;1.00;;;;;;5053871;28;20411;-64
2020/12/15 06:13:00;;;;;;;30.43;19.33;;;6.40;1.00;;;;;;5052693;28;20438;-63
2020/12/15 06:15:29;;;;;;;30.13;20.60;;;6.40;1.00;;;;;;5053828;28;20498;-57
2020/12/15 06:18:02;;;;;;;31.90;19.70;;;6.50;1.00;;;;;;5052258;28;20470;-64
2020/12/15 06:20:37;;;;;;;30.77;20.17;;;6.40;1.00;;;;;;5046109;28;20827;-56
2020/12/15 06:23:07;;;;;;;28.73;19.47;;;6.40;1.00;;;;;;5053230;28;20432;-56
2020/12/15 06:25:35;;;;;;;27.90;21.00;;;6.40;1.00;;;;;;5053240;28;20562;-56
2020/12/15 06:28:09;;;;;;;29.00;20.37;;;6.40;1.00;;;;;;5053068;28;20441;-56
2020/12/15 06:30:37;;;;;;;31.60;21.33;;;6.40;1.00;;;;;;5053629;28;20418;-56
2020/12/15 06:33:05;;;;;;;37.33;22.13;;;6.40;1.00;;;;;;5053288;28;20438;-64
2020/12/15 06:35:31;;;;;;;33.50;21.27;;;6.40;1.00;;;;;;5069340;28;20844;-56
2020/12/15 06:37:57;;;;;;;27.80;20.07;;;6.40;1.00;;;;;;5052750;28;20458;-56
2020/12/15 06:40:23;;;;;;;34.67;21.13;;;6.40;1.00;;;;;;5056554;28;20499;-57
2020/12/15 06:42:50;;;;;;;31.03;20.27;;;6.40;1.00;;;;;;5057354;28;20469;-64
2020/12/15 06:45:20;;;;;;;27.60;19.57;;;6.40;1.00;;;;;;5057228;28;20629;-64
2020/12/15 06:47:58;;;;;;;30.60;21.07;;;6.40;1.00;;;;;;5056967;28;20473;-55
2020/12/15 06:50:25;;;;;;;30.50;19.50;;;6.30;1.00;;;;;;5043868;28;20428;-55
2020/12/15 06:52:50;;;;;;;31.10;20.50;;;6.30;1.00;;;;;;5057116;28;20918;-56
2020/12/15 06:55:28;;;;;;;30.97;20.23;;;6.40;1.00;;;;;;5057077;28;20434;-67
2020/12/15 06:57:57;;;;;;;32.07;22.17;;;6.40;1.00;;;;;;5057547;28;20219;-56
2020/12/15 07:00:36;;;;;;;29.27;19.47;;;6.30;1.00;;;;;;5072418;28;20458;-65
2020/12/15 07:03:02;;;;;;;27.27;19.40;;;6.20;1.00;;;;;;5042390;28;20453;-55
2020/12/15 07:05:28;;;;;;;29.10;19.97;;;6.20;1.00;;;;;;5057103;28;20457;-64
2020/12/15 07:07:58;;;;;;;27.27;19.37;;;6.30;1.00;;;;;;5057099;28;20462;-56
2020/12/15 07:10:26;;;;;;;27.17;19.73;;;6.30;1.00;;;;;;5057125;28;20441;-64
2020/12/15 07:12:52;;;;;;;29.53;19.70;;;6.40;1.00;;;;;;5072484;28;20557;-65
2020/12/15 07:15:19;;;;;;;30.60;21.10;;;6.40;1.00;;;;;;5056487;28;20564;-64
2020/12/15 07:17:49;;;;;;;30.40;18.50;;;6.40;1.00;;;;;;5056323;28;20469;-64
2020/12/15 07:20:16;;;;;;;27.10;19.83;;;6.40;1.00;;;;;;5056288;28;20422;-65
2020/12/15 07:22:42;;;;;;;29.80;19.27;;;6.50;1.00;;;;;;5056279;28;20469;-63
2020/12/15 07:25:09;;;;;;;27.60;18.30;;;6.50;1.00;;;;;;5056583;28;20450;-55
2020/12/15 07:27:39;;;;;;;26.03;16.80;;;6.50;1.00;;;;;;5056633;28;20186;-56
2020/12/15 07:30:10;;;;;;;31.20;18.23;;;6.60;1.00;;;;;;5056262;28;20516;-56
2020/12/15 07:32:37;;;;;;;28.50;17.90;;;6.60;1.00;;;;;;5056548;28;20398;-56
2020/12/15 07:35:09;;;;;;;24.20;19.47;;;6.60;1.00;;;;;;5056584;28;20418;-65
2020/12/15 07:37:39;;;;;;;28.57;17.90;;;6.70;1.00;;;;;;5050671;28;20455;-65
2020/12/15 07:40:07;;;;;;;26.80;17.37;;;6.70;1.00;;;;;;5056368;28;20423;-56
2020/12/15 07:42:33;;;;;;;23.80;16.23;;;6.70;1.00;;;;;;5056066;28;20433;-55
2020/12/15 07:45:00;;;;;;;26.87;18.43;;;6.80;1.00;;;;;;5056117;28;20884;-56
2020/12/15 07:47:27;;;;;;;27.70;17.33;;;6.80;1.00;;;;;;5054817;28;20637;-64
2020/12/15 07:49:56;;;;;;;24.23;16.63;;;6.80;1.00;;;;;;5054258;28;20427;-64
2020/12/15 07:52:34;;;;;;;25.83;17.50;;;6.80;1.00;;;;;;5071969;28;20481;-65
2020/12/15 07:55:13;;;;;;;25.83;17.27;;;6.80;1.00;;;;;;5056370;28;20449;-65
2020/12/15 07:57:41;;;;;;;26.80;17.80;;;6.90;1.00;;;;;;5056025;28;20458;-56
2020/12/15 08:00:15;;;;;;;26.57;16.57;;;6.90;1.00;;;;;;5055969;28;20492;-56
2020/12/15 08:02:42;;;;;;;23.57;16.27;;;7.00;1.00;;;;;;5056083;28;20414;-65
2020/12/15 08:05:15;;;;;;;24.53;15.17;;;7.00;1.00;;;;;;5055688;28;20445;-67
2020/12/15 08:08:07;;;;;;;24.80;16.80;;;7.00;1.00;;;;;;5054814;28;20434;-56
2020/12/15 08:10:34;;;;;;;27.27;16.60;;;7.00;1.00;;;;;;5053573;28;20451;-56
2020/12/15 08:13:04;;;;;;;23.60;16.13;;;7.00;1.00;;;;;;5055806;28;20488;-56
2020/12/15 08:15:35;;;;;;;26.03;16.93;;;7.00;1.00;;;;;;5055774;28;20423;-69
2020/12/15 08:18:03;;;;;;;25.00;16.13;;;7.10;1.00;;;;;;5055152;28;20501;-55
2020/12/15 08:20:30;;;;;;;25.47;16.93;;;7.10;1.00;;;;;;5052803;28;20504;-57
2020/12/15 08:23:23;;;;;;;21.43;15.40;;;7.00;1.00;;;;;;5055431;28;20518;-69
2020/12/15 08:25:56;;;;;;;25.77;15.97;;;7.10;1.00;;;;;;5047094;28;20451;-64
2020/12/15 08:28:22;;;;;;;24.97;16.47;;;7.10;1.00;;;;;;5057622;28;20463;-63
2020/12/15 08:30:49;;;;;;;23.90;15.83;;;7.10;1.00;;;;;;5049300;28;20434;-64
2020/12/15 08:33:28;;;;;;;22.00;15.00;;;7.10;1.00;;;;;;5055112;28;20923;-63
2020/12/15 08:35:58;;;;;;;23.80;15.70;;;7.10;1.00;;;;;;5054766;28;20462;-63
2020/12/15 08:38:25;;;;;;;23.50;15.47;;;7.20;1.00;;;;;;5055106;28;20454;-65
2020/12/15 08:40:54;;;;;;;24.10;15.30;;;7.20;1.00;;;;;;5055205;28;20461;-62
2020/12/15 08:43:19;;;;;;;22.80;15.03;;;7.30;1.00;;;;;;5055470;28;20415;-63
2020/12/15 08:45:46;;;;;;;20.17;12.33;;;7.30;1.00;;;;;;5055054;28;20884;-65
2020/12/15 08:48:17;;;;;;;22.43;15.27;;;7.20;1.00;;;;;;5054944;28;20554;-63
2020/12/15 08:50:44;;;;;;;24.23;14.97;;;7.30;1.00;;;;;;5055151;28;20762;-64
2020/12/15 08:53:11;;;;;;;21.80;14.53;;;7.30;1.00;;;;;;5054628;28;20911;-64
2020/12/15 08:55:38;;;;;;;21.10;15.60;;;7.40;1.00;;;;;;5054040;28;20470;-63
2020/12/15 08:58:08;;;;;;;20.47;13.70;;;7.40;1.00;;;;;;5055060;28;20447;-62
2020/12/15 09:00:40;;;;;;;24.73;15.50;;;7.40;1.00;;;;;;5054440;28;20760;-64
2020/12/15 09:03:14;;;;;;;22.57;14.97;;;7.40;1.00;;;;;;5054052;28;20430;-64
2020/12/15 09:05:49;;;;;;;24.70;16.00;;;7.50;1.00;;;;;;5054964;28;20410;-62
2020/12/15 09:08:15;;;;;;;24.57;14.77;;;7.40;1.00;;;;;;5054393;28;20425;-63
2020/12/15 09:10:41;;;;;;;19.20;12.60;;;7.50;1.00;;;;;;5054630;28;20438;-64
2020/12/15 09:13:07;;;;;;;23.70;14.13;;;7.40;1.00;;;;;;5054644;28;20572;-62
2020/12/15 09:15:32;;;;;;;20.80;14.63;;;7.40;1.00;;;;;;5054650;28;20474;-64
2020/12/15 09:17:58;;;;;;;21.53;14.27;;;7.50;1.00;;;;;;5054479;28;20469;-63
2020/12/15 09:20:26;;;;;;;21.47;14.30;;;7.50;1.00;;;;;;5054218;28;20180;-64
2020/12/15 09:22:52;;;;;;;22.63;13.87;;;7.50;1.00;;;;;;5052928;28;20255;-65
2020/12/15 09:25:18;;;;;;;24.23;13.47;;;7.50;1.00;;;;;;5054050;28;20435;-63
2020/12/15 09:27:46;;;;;;;22.60;14.50;;;7.60;1.00;;;;;;5054151;28;20430;-64
2020/12/15 09:30:13;;;;;;;20.57;12.60;;;7.60;1.00;;;;;;5053024;28;20836;-64
2020/12/15 09:32:39;;;;;;;22.27;12.77;;;7.60;1.00;;;;;;5054606;28;20415;-65
2020/12/15 09:35:04;;;;;;;21.50;15.07;;;7.60;1.00;;;;;;5054265;28;20850;-63
2020/12/15 09:37:30;;;;;;;21.20;13.70;;;7.60;1.00;;;;;;5053555;28;21023;-63
2020/12/15 09:39:57;;;;;;;18.50;12.93;;;7.70;1.00;;;;;;5054186;28;20263;-64
2020/12/15 09:42:24;;;;;;;23.90;16.07;;;7.80;1.00;;;;;;5053761;28;20616;-64
2020/12/15 09:44:51;;;;;;;20.00;14.20;;;7.80;1.00;;;;;;5068889;28;20438;-66
2020/12/15 09:47:16;;;;;;;25.83;15.17;;;7.90;1.00;;;;;;5053996;28;20683;-66
2020/12/15 09:49:42;;;;;;;19.93;14.13;;;7.80;1.00;;;;;;5053792;28;20418;-64
2020/12/15 09:52:07;;;;;;;22.37;15.30;;;7.80;1.00;;;;;;5053692;28;20181;-64
2020/12/15 09:54:33;;;;;;;25.20;13.50;;;7.90;1.00;;;;;;5052849;28;20250;-64
2020/12/15 09:56:59;;;;;;;20.20;13.20;;;7.90;1.00;;;;;;5053767;28;20170;-56
2020/12/15 09:59:24;;;;;;;20.70;12.80;;;8.00;1.00;;;;;;5051505;28;20212;-63
2020/12/15 10:01:50;;;;;;;20.83;14.97;;;8.00;1.00;;;;;;5051219;28;20187;-65
2020/12/15 10:04:16;;;;;;;23.33;14.90;;;8.00;1.00;;;;;;5053733;28;20614;-64
2020/12/15 10:06:43;;;;;;;22.83;15.07;;;8.00;1.00;;;;;;5053651;28;20613;-55
2020/12/15 10:09:08;;;;;;;24.77;15.43;;;8.00;1.00;;;;;;5053796;28;20176;-65
2020/12/15 10:11:34;;;;;;;24.20;14.10;;;8.10;1.00;;;;;;5069008;28;20518;-55
2020/12/15 10:14:00;;;;;;;27.43;15.07;;;8.10;1.00;;;;;;5053149;28;20214;-65
2020/12/15 10:16:26;;;;;;;25.83;14.50;;;8.10;1.00;;;;;;5053868;28;20172;-54
2020/12/15 10:18:53;;;;;;;20.93;14.43;;;8.10;1.00;;;;;;5052599;28;20508;-55
2020/12/15 10:21:19;;;;;;;22.27;14.50;;;8.20;1.00;;;;;;5053295;28;20302;-56
2020/12/15 10:23:47;;;;;;;18.80;14.30;;;8.10;1.00;;;;;;5053713;28;20819;-55
2020/12/15 10:26:18;;;;;;;22.27;14.37;;;8.10;1.00;;;;;;5053921;28;20172;-63
2020/12/15 10:28:44;;;;;;;20.77;13.07;;;8.20;1.00;;;;;;5052510;28;20429;-63
2020/12/15 10:31:10;;;;;;;20.23;13.80;;;8.00;1.00;;;;;;5053342;28;20434;-63
2020/12/15 10:33:36;;;;;;;20.73;13.87;;;7.90;1.00;;;;;;5053136;28;20434;-55
2020/12/15 10:36:02;;;;;;;18.63;13.10;;;7.90;1.00;;;;;;5052464;28;20184;-64
2020/12/15 10:38:28;;;;;;;21.77;14.37;;;7.90;1.00;;;;;;5052903;28;20200;-64
2020/12/15 10:40:54;;;;;;;23.03;14.47;;;8.00;1.00;;;;;;5053591;28;20505;-63
2020/12/15 10:43:19;;;;;;;19.20;13.00;;;8.00;1.00;;;;;;5052989;28;20841;-64
2020/12/15 10:45:45;;;;;;;20.60;13.97;;;8.00;1.00;;;;;;5052323;28;20234;-63
2020/12/15 10:48:11;;;;;;;21.93;14.30;;;8.10;1.00;;;;;;5068011;28;20270;-65
2020/12/15 10:50:36;;;;;;;18.40;13.27;;;8.10;1.00;;;;;;5053089;28;20186;-64
2020/12/15 10:53:04;;;;;;;20.07;13.93;;;8.10;1.00;;;;;;5053036;28;20191;-56
2020/12/15 10:55:29;;;;;;;20.37;14.40;;;8.10;1.00;;;;;;5051008;28;20570;-55
2020/12/15 10:57:55;;;;;;;23.83;13.30;;;8.20;1.00;;;;;;5053165;28;20561;-55
2020/12/15 11:00:20;;;;;;;20.63;13.77;;;8.20;1.00;;;;;;5052832;28;20228;-56
2020/12/15 11:02:46;;;;;;;18.83;13.23;;;8.10;1.00;;;;;;5052909;28;20176;-57
2020/12/15 11:05:11;;;;;;;18.87;11.93;;;8.20;1.00;;;;;;5052116;28;20183;-55
2020/12/15 11:07:37;;;;;;;17.03;11.50;;;8.20;1.00;;;;;;5068658;28;20255;-56
2020/12/15 11:10:03;;;;;;;15.33;12.37;;;8.10;1.00;;;;;;5053076;28;20187;-56
2020/12/15 11:12:28;;;;;;;15.67;10.90;;;8.10;1.00;;;;;;5052821;28;20177;-56
2020/12/15 11:14:54;;;;;;;18.37;13.20;;;8.20;1.00;;;;;;5052734;28;20168;-55
2020/12/15 11:17:19;;;;;;;17.87;12.37;;;8.30;1.00;;;;;;5052851;28;20653;-55
2020/12/15 11:19:45;;;;;;;18.70;12.10;;;8.40;1.00;;;;;;5052208;28;20180;-56
2020/12/15 11:22:11;;;;;;;18.83;11.30;;;8.60;1.00;;;;;;5052161;28;20637;-55
2020/12/15 11:24:37;;;;;;;17.30;13.07;;;8.90;1.00;;;;;;5053835;28;20609;-55
2020/12/15 11:27:02;;;;;;;18.73;11.90;;;9.10;1.00;;;;;;5056606;28;20274;-55
2020/12/15 11:29:28;;;;;;;17.90;13.07;;;9.10;1.00;;;;;;5056093;28;20434;-56
2020/12/15 11:31:53;;;;;;;22.40;11.90;;;9.00;1.00;;;;;;5056028;28;20541;-56
2020/12/15 11:34:20;;;;;;;17.93;12.00;;;8.90;1.00;;;;;;5055101;28;20230;-57
2020/12/15 11:36:45;;;;;;;20.60;12.20;;;8.80;1.00;;;;;;5055587;28;20237;-56
2020/12/15 11:39:11;;;;;;;18.03;11.57;;;8.80;1.00;;;;;;5055953;28;20422;-56
2020/12/15 11:41:38;;;;;;;18.57;11.57;;;8.90;1.00;;;;;;5055506;28;20430;-58
2020/12/15 11:44:05;;;;;;;22.60;12.70;;;8.80;1.00;;;;;;5056029;28;20422;-56
2020/12/15 11:46:31;;;;;;;15.23;11.20;;;8.80;1.00;;;;;;5056001;28;20478;-55
2020/12/15 11:48:57;;;;;;;16.37;11.30;;;8.80;1.00;;;;;;5055928;28;20427;-56
2020/12/15 11:51:22;;;;;;;20.77;13.07;;;8.80;1.00;;;;;;5055968;28;20431;-58
2020/12/15 11:53:48;;;;;;;18.70;12.40;;;8.80;1.00;;;;;;5055768;28;20169;-56
2020/12/15 11:56:17;;;;;;;19.03;11.90;;;8.80;1.00;;;;;;5055699;28;20176;-56
2020/12/15 11:58:44;;;;;;;20.13;12.60;;;8.90;1.00;;;;;;5055698;28;20196;-56
2020/12/15 12:01:10;;;;;;;19.67;13.40;;;8.80;1.00;;;;;;5055774;28;20437;-55
2020/12/15 12:03:35;;;;;;;19.97;12.87;;;8.80;1.00;;;;;;5055692;28;20419;-56
2020/12/15 12:06:01;;;;;;;19.00;12.63;;;8.80;1.00;;;;;;5055870;28;20415;-56
2020/12/15 12:08:28;;;;;;;21.43;12.43;;;8.80;1.00;;;;;;5055244;28;20180;-57
2020/12/15 12:10:54;;;;;;;24.70;13.77;;;8.70;1.00;;;;;;5054847;28;20176;-56
2020/12/15 12:13:19;;;;;;;18.33;12.10;;;8.80;1.00;;;;;;5054596;28;20430;-56
2020/12/15 12:15:45;;;;;;;17.20;12.27;;;8.90;1.00;;;;;;5055692;28;20179;-56
2020/12/15 12:18:10;;;;;;;18.13;12.97;;;9.00;1.00;;;;;;5049192;28;20649;-57
2020/12/15 12:20:36;;;;;;;19.50;13.33;;;9.10;1.00;;;;;;5049309;28;20190;-56
2020/12/15 12:23:03;;;;;;;22.20;13.20;;;9.10;1.00;;;;;;5038134;28;20191;-56
2020/12/15 12:25:28;;;;;;;18.50;12.90;;;9.00;1.00;;;;;;5055604;28;20777;-56
2020/12/15 12:27:54;;;;;;;16.83;11.20;;;9.00;1.00;;;;;;5055234;28;20462;-56
2020/12/15 12:30:20;;;;;;;18.93;13.20;;;9.00;1.00;;;;;;5054868;28;20219;-55
2020/12/15 12:32:46;;;;;;;17.70;11.93;;;8.90;1.00;;;;;;5055465;28;20271;-55
2020/12/15 12:35:12;;;;;;;19.27;12.20;;;9.20;1.00;;;;;;5055265;28;20450;-55
2020/12/15 12:37:38;;;;;;;18.63;11.57;;;9.30;1.00;;;;;;5054346;28;20267;-55
2020/12/15 12:40:05;;;;;;;15.90;11.30;;;10.00;1.00;;;;;;5055045;28;20450;-55
2020/12/15 12:42:31;;;;;;;18.23;11.60;;;10.40;1.00;;;;;;5054671;28;20431;-55
2020/12/15 12:44:56;;;;;;;16.40;12.70;;;10.40;1.00;;;;;;5054585;28;20738;-55